Time;durP1;ratioP1;P1;durP2;ratioP2;P2;SDS_P1;SDS_P2;PMS_P1;PMS_P2;Temp;Humidity;BMP_temperature;BMP_pressure;BME280_temperature;BME280_humidity;BME280_pressure;Samples;Min_cycle;Max_cycle;Signal;HPM_P1;HPM_P2
2022/09/07 00:10:07;;;;;;;15.18;12.68;;;21.70;79.80;;;;;;5092634;28;20123;-13
2022/09/07 00:12:33;;;;;;;16.48;14.20;;;21.80;79.60;;;;;;5096851;28;20070;-13
2022/09/07 00:15:00;;;;;;;18.90;14.85;;;21.80;79.70;;;;;;5096306;28;20440;-13
2022/09/07 00:17:27;;;;;;;16.67;13.75;;;21.80;79.70;;;;;;5096436;28;20042;-13
2022/09/07 00:19:54;;;;;;;16.20;13.05;;;21.80;79.70;;;;;;5096394;28;20016;-16
2022/09/07 00:22:21;;;;;;;16.33;13.65;;;21.80;79.80;;;;;;5096362;28;20059;-15
2022/09/07 00:24:46;;;;;;;20.17;15.85;;;21.80;79.80;;;;;;5096383;28;20537;-15
2022/09/07 00:27:12;;;;;;;20.00;16.02;;;21.90;80.80;;;;;;5096170;28;20024;-14
2022/09/07 00:29:39;;;;;;;22.67;18.02;;;21.80;80.20;;;;;;5096842;28;20058;-14
2022/09/07 00:32:05;;;;;;;22.80;18.35;;;21.90;81.10;;;;;;5096179;28;20061;-13
2022/09/07 00:34:31;;;;;;;18.05;15.85;;;21.80;80.70;;;;;;5096147;28;20028;-14
2022/09/07 00:36:58;;;;;;;18.05;15.65;;;21.90;80.80;;;;;;5095755;28;20048;-14
2022/09/07 00:39:24;;;;;;;17.02;14.35;;;21.80;80.70;;;;;;5096016;28;20026;-13
2022/09/07 00:41:50;;;;;;;22.35;17.00;;;21.90;80.40;;;;;;5096226;28;20024;-14
2022/09/07 00:44:53;;;;;;;23.08;18.70;;;21.90;80.90;;;;;;5096203;28;20078;-13
2022/09/07 00:47:24;;;;;;;21.85;17.20;;;21.90;80.80;;;;;;5095841;28;20016;-13
2022/09/07 00:49:57;;;;;;;21.17;17.08;;;21.80;80.70;;;;;;5095916;28;20506;-14
2022/09/07 00:52:25;;;;;;;21.95;17.80;;;21.90;80.70;;;;;;5096156;28;20020;-14
2022/09/07 00:54:57;;;;;;;22.90;18.73;;;21.90;81.10;;;;;;5095833;28;20024;-14
2022/09/07 00:57:26;;;;;;;19.75;15.45;;;21.90;81.10;;;;;;5095862;28;20494;-14
2022/09/07 00:59:56;;;;;;;21.02;17.98;;;21.80;80.80;;;;;;5095939;28;20081;-14
2022/09/07 01:02:23;;;;;;;22.50;18.88;;;21.90;80.80;;;;;;5095894;28;20024;-14
2022/09/07 01:04:55;;;;;;;22.80;17.60;;;21.90;81.30;;;;;;5094241;28;20024;-14
2022/09/07 01:07:22;;;;;;;23.17;18.77;;;21.90;81.20;;;;;;5095933;28;20028;-13
2022/09/07 01:09:49;;;;;;;25.30;19.00;;;21.90;81.10;;;;;;5095423;28;20510;-13
2022/09/07 01:12:15;;;;;;;24.73;20.50;;;21.90;81.00;;;;;;5095350;28;20040;-13
2022/09/07 01:14:49;;;;;;;26.42;20.30;;;21.90;81.50;;;;;;5095392;28;20107;-13
2022/09/07 01:17:36;;;;;;;21.35;18.92;;;21.90;81.70;;;;;;5094599;28;20123;-13
2022/09/07 01:20:32;;;;;;;20.23;16.42;;;21.90;81.80;;;;;;5095646;28;20021;-13
2022/09/07 01:23:27;;;;;;;20.95;17.33;;;21.80;81.10;;;;;;5095069;28;20039;-13
2022/09/07 01:26:22;;;;;;;23.88;18.42;;;21.80;81.00;;;;;;5095115;28;20053;-15
2022/09/07 01:29:12;;;;;;;21.73;17.60;;;21.80;81.50;;;;;;5057594;28;20499;-14
2022/09/07 01:32:00;;;;;;;17.17;14.23;;;21.80;80.90;;;;;;5052720;28;20025;-14
2022/09/07 01:34:27;;;;;;;23.10;15.95;;;21.80;80.80;;;;;;5094300;28;20024;-14
2022/09/07 01:37:06;;;;;;;18.98;15.48;;;21.80;80.60;;;;;;5094740;28;20510;-14
2022/09/07 01:39:45;;;;;;;18.98;15.30;;;21.90;80.80;;;;;;5094963;28;20149;-13
2022/09/07 01:42:14;;;;;;;27.83;20.27;;;21.90;80.70;;;;;;5095123;28;20031;-13
2022/09/07 01:44:48;;;;;;;19.35;15.02;;;21.90;80.70;;;;;;5094821;28;20027;-13
2022/09/07 01:47:32;;;;;;;20.88;15.63;;;21.80;80.60;;;;;;5094788;28;20032;-13
2022/09/07 01:50:01;;;;;;;;;;;21.80;80.70;;;;;;5095462;28;20024;-13
2022/09/07 01:53:19;;;;;;;16.30;13.75;;;21.70;82.60;;;;;;5094798;28;20317;-13
2022/09/07 01:55:52;;;;;;;15.35;13.32;;;21.70;81.20;;;;;;5036856;28;20146;-14
2022/09/07 01:58:44;;;;;;;19.35;15.23;;;21.70;80.90;;;;;;5094533;28;20028;-15
2022/09/07 02:01:17;;;;;;;18.60;14.07;;;21.70;80.90;;;;;;5092351;28;20028;-15
2022/09/07 02:03:58;;;;;;;17.63;14.37;;;21.70;80.60;;;;;;5094450;28;20432;-14
2022/09/07 02:06:41;;;;;;;20.08;16.05;;;21.80;80.60;;;;;;5094690;28;20035;-14
2022/09/07 02:09:16;;;;;;;22.77;16.83;;;21.80;80.40;;;;;;5093944;28;20062;-15
2022/09/07 02:11:46;;;;;;;17.25;14.73;;;21.90;80.40;;;;;;5094544;28;20020;-14
2022/09/07 02:14:24;;;;;;;28.88;22.95;;;21.90;80.30;;;;;;5094193;28;20115;-14
2022/09/07 02:17:13;;;;;;;18.98;16.55;;;21.90;80.50;;;;;;5093869;28;20028;-13
2022/09/07 02:19:53;;;;;;;15.90;14.18;;;21.90;81.00;;;;;;5094088;28;20041;-13
2022/09/07 02:22:26;;;;;;;15.68;13.02;;;21.90;80.60;;;;;;5094167;28;20032;-14
2022/09/07 02:24:57;;;;;;;18.58;14.93;;;21.90;80.50;;;;;;5093876;28;20024;-13
2022/09/07 02:27:33;;;;;;;14.65;12.73;;;21.90;80.40;;;;;;5093923;28;20384;-14
2022/09/07 02:29:59;;;;;;;25.33;19.05;;;21.90;80.50;;;;;;5093385;28;20099;-16
2022/09/07 02:32:25;;;;;;;25.33;18.45;;;21.90;80.70;;;;;;5094042;28;20445;-14
2022/09/07 02:34:51;;;;;;;20.35;16.35;;;21.90;82.60;;;;;;5092402;28;20028;-15
2022/09/07 02:37:20;;;;;;;18.95;15.18;;;21.90;81.80;;;;;;5094198;28;20024;-14
2022/09/07 02:39:48;;;;;;;21.00;15.07;;;21.80;81.70;;;;;;5094138;28;20479;-15
2022/09/07 02:42:14;;;;;;;18.13;14.93;;;21.80;81.90;;;;;;5093637;28;20028;-14
2022/09/07 02:44:41;;;;;;;24.38;19.60;;;21.70;82.10;;;;;;5093626;28;20123;-16
2022/09/07 02:47:20;;;;;;;29.58;22.75;;;21.70;82.00;;;;;;5093487;28;20046;-14
2022/09/07 02:50:18;;;;;;;21.05;17.00;;;21.70;82.60;;;;;;5093918;28;20115;-16
2022/09/07 02:53:21;;;;;;;23.30;17.92;;;21.60;82.70;;;;;;5093747;28;20024;-16
2022/09/07 02:56:08;;;;;;;26.52;20.58;;;21.60;83.90;;;;;;5093600;28;20086;-15
2022/09/07 02:59:20;;;;;;;26.13;21.98;;;21.50;85.20;;;;;;5093824;28;20059;-14
2022/09/07 03:02:07;;;;;;;27.65;21.90;;;21.40;85.70;;;;;;5051069;28;20519;-13
2022/09/07 03:05:03;;;;;;;21.08;17.80;;;21.40;85.80;;;;;;5051198;28;20033;-14
2022/09/07 03:07:35;;;;;;;24.55;18.77;;;21.40;85.90;;;;;;5051077;28;20074;-13
2022/09/07 03:10:04;;;;;;;18.88;15.85;;;21.30;85.70;;;;;;5050830;28;20525;-14
2022/09/07 03:12:46;;;;;;;21.90;19.13;;;21.30;85.60;;;;;;5050911;28;20037;-14
2022/09/07 03:15:16;;;;;;;25.90;19.80;;;21.30;86.00;;;;;;5050885;28;20029;-13
2022/09/07 03:17:44;;;;;;;23.23;18.27;;;21.20;86.50;;;;;;5051183;28;20021;-16
2022/09/07 03:20:10;;;;;;;19.83;15.57;;;21.10;86.10;;;;;;5034429;28;20060;-15
2022/09/07 03:22:36;;;;;;;19.30;15.35;;;21.10;85.70;;;;;;5051192;28;20108;-14
2022/09/07 03:25:03;;;;;;;15.88;12.95;;;21.10;85.30;;;;;;5050674;28;20404;-15
2022/09/07 03:27:31;;;;;;;13.75;10.68;;;21.00;84.90;;;;;;5050769;28;20083;-14
2022/09/07 03:29:57;;;;;;;16.67;12.77;;;21.00;84.60;;;;;;5050895;28;20033;-14
2022/09/07 03:32:24;;;;;;;15.80;12.68;;;21.00;84.10;;;;;;5050812;28;20029;-13
2022/09/07 03:34:51;;;;;;;15.77;11.95;;;21.00;84.00;;;;;;5056538;28;20035;-14
2022/09/07 03:37:17;;;;;;;17.52;12.98;;;20.90;84.00;;;;;;5093050;28;20025;-13
2022/09/07 03:39:43;;;;;;;16.83;10.90;;;20.90;83.70;;;;;;5093075;28;20525;-14
2022/09/07 03:42:08;;;;;;;15.75;11.50;;;20.90;83.70;;;;;;5097729;28;20511;-14
2022/09/07 03:44:34;;;;;;;13.48;10.02;;;20.90;83.60;;;;;;5097186;28;20027;-16
2022/09/07 03:47:01;;;;;;;13.63;9.98;;;20.80;83.70;;;;;;5096982;28;20035;-15
2022/09/07 03:49:26;;;;;;;13.68;10.25;;;20.80;83.80;;;;;;5097400;28;20031;-14
2022/09/07 03:51:53;;;;;;;21.58;12.00;;;20.70;84.10;;;;;;5097063;28;20027;-15
2022/09/07 03:54:19;;;;;;;15.70;11.63;;;20.60;84.90;;;;;;5096940;28;20063;-14
2022/09/07 03:56:45;;;;;;;12.95;10.52;;;20.60;85.20;;;;;;5096823;28;20035;-14
2022/09/07 03:59:11;;;;;;;13.93;9.75;;;20.50;85.10;;;;;;5096911;28;20039;-15
2022/09/07 04:01:36;;;;;;;13.60;8.68;;;20.50;84.30;;;;;;5097101;28;20386;-14
2022/09/07 04:04:02;;;;;;;11.48;8.95;;;20.60;84.10;;;;;;5096759;28;20514;-14
2022/09/07 04:06:30;;;;;;;10.68;8.68;;;20.50;83.90;;;;;;5096691;28;20030;-14
2022/09/07 04:08:56;;;;;;;11.57;8.80;;;20.50;83.80;;;;;;5096351;28;20059;-14
2022/09/07 04:11:22;;;;;;;13.40;9.88;;;20.50;83.70;;;;;;5097004;28;20028;-15
2022/09/07 04:13:49;;;;;;;13.13;10.48;;;20.40;84.10;;;;;;5096949;28;20422;-15
2022/09/07 04:16:21;;;;;;;10.18;8.38;;;20.40;83.80;;;;;;5096614;28;20035;-15
2022/09/07 04:18:53;;;;;;;11.38;8.90;;;20.40;83.90;;;;;;5096421;28;20047;-20
2022/09/07 04:21:23;;;;;;;11.90;9.35;;;20.40;83.90;;;;;;5096513;28;20027;-14
2022/09/07 04:23:50;;;;;;;12.00;9.57;;;20.40;84.00;;;;;;5096823;28;20024;-16
2022/09/07 04:26:19;;;;;;;11.68;8.15;;;20.30;84.10;;;;;;5096238;28;20106;-15
2022/09/07 04:28:46;;;;;;;12.48;9.05;;;20.30;84.00;;;;;;5096556;28;20077;-14
2022/09/07 04:31:14;;;;;;;15.95;12.25;;;20.30;84.00;;;;;;5096163;28;20052;-14
2022/09/07 04:33:41;;;;;;;11.32;9.07;;;20.40;84.30;;;;;;5096288;28;20048;-14
2022/09/07 04:36:07;;;;;;;10.70;8.35;;;20.30;84.50;;;;;;5096247;28;20020;-14
2022/09/07 04:38:34;;;;;;;11.90;8.68;;;20.30;84.20;;;;;;5096097;28;20056;-14
2022/09/07 04:41:01;;;;;;;13.30;9.77;;;20.30;84.30;;;;;;5094513;28;20383;-14
2022/09/07 04:43:28;;;;;;;13.38;9.88;;;20.40;84.40;;;;;;5096481;28;20024;-14
2022/09/07 04:45:55;;;;;;;13.60;9.90;;;20.30;85.10;;;;;;5095964;28;20020;-14
2022/09/07 04:48:21;;;;;;;14.15;10.15;;;20.30;85.10;;;;;;5095901;28;20455;-15
2022/09/07 04:50:47;;;;;;;12.25;8.90;;;20.30;85.50;;;;;;5096157;28;20028;-14
2022/09/07 04:53:13;;;;;;;11.13;8.75;;;20.20;84.70;;;;;;5095044;28;20422;-14
2022/09/07 04:55:39;;;;;;;11.68;8.73;;;20.20;84.50;;;;;;5095643;28;20032;-15
2022/09/07 04:58:05;;;;;;;18.38;11.68;;;20.20;84.60;;;;;;5095631;28;20172;-14
2022/09/07 05:00:31;;;;;;;14.88;11.38;;;20.20;85.10;;;;;;5095684;28;20111;-17
2022/09/07 05:02:57;;;;;;;12.95;9.50;;;20.10;85.90;;;;;;5095744;28;20047;-15
2022/09/07 05:05:23;;;;;;;14.88;9.63;;;20.20;85.40;;;;;;5095939;28;20425;-15
2022/09/07 05:07:49;;;;;;;11.25;8.27;;;20.10;85.70;;;;;;5095858;28;20395;-15
2022/09/07 05:10:15;;;;;;;10.50;8.10;;;20.20;85.80;;;;;;5095305;28;20550;-15
2022/09/07 05:12:41;;;;;;;13.20;9.60;;;20.10;85.70;;;;;;5094139;28;20028;-15
2022/09/07 05:15:08;;;;;;;12.13;9.13;;;20.10;85.70;;;;;;5095268;28;20032;-14
2022/09/07 05:17:34;;;;;;;13.88;8.95;;;20.10;85.40;;;;;;5095588;28;20042;-15
2022/09/07 05:20:00;;;;;;;12.95;10.10;;;20.10;85.70;;;;;;5095396;28;20069;-14
2022/09/07 05:22:26;;;;;;;13.80;10.57;;;20.10;85.60;;;;;;5095418;28;20028;-14
2022/09/07 05:24:52;;;;;;;11.13;9.15;;;20.10;85.40;;;;;;5094979;28;20056;-16
2022/09/07 05:27:18;;;;;;;11.40;8.80;;;20.10;85.00;;;;;;5095120;28;20028;-16
2022/09/07 05:29:45;;;;;;;11.38;8.43;;;20.10;84.70;;;;;;5095023;28;20035;-16
2022/09/07 05:32:11;;;;;;;16.35;11.50;;;20.10;84.70;;;;;;5095052;28;20107;-15
2022/09/07 05:34:38;;;;;;;12.82;9.07;;;20.10;85.20;;;;;;5095029;28;20035;-15
2022/09/07 05:37:04;;;;;;;12.50;10.50;;;20.10;85.10;;;;;;5094772;28;20028;-16
2022/09/07 05:39:30;;;;;;;12.52;9.15;;;20.20;85.00;;;;;;5094904;28;20499;-16
2022/09/07 05:41:56;;;;;;;12.98;10.05;;;20.20;85.00;;;;;;5094743;28;20024;-15
2022/09/07 05:44:23;;;;;;;11.88;8.65;;;20.20;85.10;;;;;;5093617;28;20112;-14
2022/09/07 05:46:50;;;;;;;14.75;10.20;;;20.30;85.00;;;;;;5094562;28;20031;-14
2022/09/07 05:49:17;;;;;;;13.05;10.40;;;20.30;85.10;;;;;;5095027;28;20034;-14
2022/09/07 05:51:43;;;;;;;15.57;12.02;;;20.40;84.90;;;;;;5094735;28;20110;-15
2022/09/07 05:54:10;;;;;;;11.40;9.02;;;20.50;86.10;;;;;;5094611;28;20038;-13
2022/09/07 05:56:37;;;;;;;15.25;10.57;;;20.50;85.10;;;;;;5094475;28;20043;-14
2022/09/07 05:59:03;;;;;;;13.30;8.73;;;20.50;85.10;;;;;;5094653;28;20114;-15
2022/09/07 06:01:29;;;;;;;13.27;11.27;;;20.60;84.80;;;;;;5094968;28;20027;-14
2022/09/07 06:03:56;;;;;;;10.88;8.48;;;20.70;84.70;;;;;;5094205;28;20024;-13
2022/09/07 06:06:22;;;;;;;11.35;7.78;;;20.70;84.30;;;;;;5094565;28;20024;-14
2022/09/07 06:08:52;;;;;;;10.80;7.78;;;20.80;84.10;;;;;;5094043;28;20048;-14
2022/09/07 06:11:22;;;;;;;10.70;8.50;;;20.90;83.70;;;;;;5094287;28;20048;-16
2022/09/07 06:13:49;;;;;;;11.40;9.15;;;20.90;83.70;;;;;;5094480;28;20036;-15
2022/09/07 06:16:17;;;;;;;15.32;10.88;;;21.00;84.20;;;;;;5094460;28;20032;-15
2022/09/07 06:18:45;;;;;;;11.95;9.00;;;21.10;84.40;;;;;;5094488;28;20032;-15
2022/09/07 06:21:22;;;;;;;10.27;9.15;;;21.20;84.00;;;;;;5092875;28;20043;-15
2022/09/07 06:23:50;;;;;;;13.23;9.75;;;21.30;83.70;;;;;;5094502;28;20369;-15
2022/09/07 06:26:18;;;;;;;21.13;11.65;;;21.40;83.60;;;;;;5094288;28;20024;-15
2022/09/07 06:28:47;;;;;;;12.85;11.27;;;21.60;83.80;;;;;;5094014;28;20063;-15
2022/09/07 06:31:15;;;;;;;13.55;10.82;;;21.70;83.40;;;;;;5094240;28;20028;-15
2022/09/07 06:33:43;;;;;;;13.15;11.18;;;21.90;83.30;;;;;;5094192;28;20024;-15
2022/09/07 06:36:19;;;;;;;16.38;12.32;;;22.00;83.10;;;;;;5094075;28;20063;-15
2022/09/07 06:38:47;;;;;;;14.55;11.63;;;22.10;82.30;;;;;;5094170;28;20028;-15
2022/09/07 06:41:21;;;;;;;12.05;9.55;;;22.20;81.60;;;;;;5093697;28;20085;-15
2022/09/07 06:43:48;;;;;;;13.75;10.73;;;22.20;81.60;;;;;;5093847;28;20454;-15
2022/09/07 06:46:15;;;;;;;12.82;10.13;;;22.40;80.80;;;;;;5092489;28;20076;-15
2022/09/07 06:48:41;;;;;;;10.55;8.77;;;22.40;80.70;;;;;;5093712;28;20082;-15
2022/09/07 06:51:19;;;;;;;13.88;11.43;;;22.40;80.60;;;;;;5093520;28;20028;-15
2022/09/07 06:53:47;;;;;;;15.52;10.73;;;22.40;80.70;;;;;;5093574;28;20483;-15
2022/09/07 06:56:15;;;;;;;12.98;9.88;;;22.30;80.30;;;;;;5093563;28;20060;-15
2022/09/07 06:58:41;;;;;;;11.02;9.13;;;22.20;80.80;;;;;;5093618;28;20020;-14
2022/09/07 07:01:21;;;;;;;15.70;11.80;;;22.20;80.90;;;;;;5093279;28;20391;-14
2022/09/07 07:03:47;;;;;;;14.00;10.20;;;22.20;81.10;;;;;;5092263;28;20024;-14
2022/09/07 07:06:14;;;;;;;16.48;10.80;;;22.10;81.40;;;;;;5093673;28;20024;-14
2022/09/07 07:08:40;;;;;;;14.13;10.70;;;22.00;81.60;;;;;;5093137;28;20048;-14
2022/09/07 07:11:09;;;;;;;12.38;8.88;;;22.00;81.40;;;;;;5093487;28;20158;-14
2022/09/07 07:13:36;;;;;;;12.13;10.43;;;22.00;81.40;;;;;;5093309;28;20074;-14
2022/09/07 07:16:07;;;;;;;10.90;9.35;;;22.00;81.90;;;;;;5093205;28;20467;-15
2022/09/07 07:18:34;;;;;;;13.68;11.20;;;22.00;81.90;;;;;;5093235;28;20107;-15
2022/09/07 07:21:07;;;;;;;15.23;11.75;;;22.00;82.10;;;;;;5093077;28;20052;-15
2022/09/07 07:23:34;;;;;;;14.63;10.63;;;21.90;82.30;;;;;;5093512;28;20500;-15
2022/09/07 07:26:09;;;;;;;19.33;13.52;;;22.00;82.00;;;;;;5093220;28;20760;-14
2022/09/07 07:28:35;;;;;;;15.82;10.73;;;22.00;82.20;;;;;;5093469;28;20020;-15
2022/09/07 07:31:03;;;;;;;16.52;11.43;;;22.00;82.10;;;;;;5092855;28;20392;-15
2022/09/07 07:33:34;;;;;;;15.38;11.00;;;22.00;81.80;;;;;;5093368;28;20016;-14
2022/09/07 07:36:15;;;;;;;14.93;10.50;;;22.10;81.80;;;;;;5093213;28;20035;-14
2022/09/07 07:38:44;;;;;;;17.58;13.13;;;22.10;81.70;;;;;;5093131;28;20040;-14
2022/09/07 07:41:11;;;;;;;16.95;10.75;;;22.20;82.00;;;;;;5093094;28;20024;-14
2022/09/07 07:43:38;;;;;;;14.50;10.98;;;22.20;81.60;;;;;;5093450;28;20023;-15
2022/09/07 07:46:05;;;;;;;14.63;10.82;;;22.10;81.60;;;;;;5093012;28;20027;-15
2022/09/07 07:48:32;;;;;;;11.60;9.38;;;22.20;81.60;;;;;;5092957;28;20074;-14
2022/09/07 07:51:04;;;;;;;13.30;9.88;;;22.30;81.60;;;;;;5092729;28;20580;-14
2022/09/07 07:53:33;;;;;;;13.52;10.60;;;22.30;81.60;;;;;;5092945;28;20063;-14
2022/09/07 07:56:00;;;;;;;13.32;10.00;;;22.40;81.20;;;;;;5092792;28;20032;-14
2022/09/07 07:58:29;;;;;;;11.73;8.95;;;22.60;81.40;;;;;;5093080;28;20048;-14
2022/09/07 08:01:04;;;;;;;10.60;8.82;;;22.80;80.70;;;;;;5092884;28;20112;-14
2022/09/07 08:03:34;;;;;;;10.73;8.85;;;23.00;80.00;;;;;;5092817;28;20020;-16
2022/09/07 08:06:10;;;;;;;13.25;8.63;;;23.30;79.80;;;;;;5093131;28;20075;-14
2022/09/07 08:08:37;;;;;;;10.55;7.88;;;23.70;78.70;;;;;;5086945;28;20538;-14
2022/09/07 08:11:12;;;;;;;11.60;8.65;;;24.00;77.90;;;;;;5092615;28;20029;-14
2022/09/07 08:13:40;;;;;;;10.65;7.70;;;24.40;75.60;;;;;;5092688;28;20059;-14
2022/09/07 08:16:07;;;;;;;12.07;8.63;;;24.70;75.60;;;;;;5092693;28;20035;-14
2022/09/07 08:18:35;;;;;;;10.88;8.52;;;24.90;74.90;;;;;;5092884;28;20044;-15
2022/09/07 08:21:03;;;;;;;11.88;8.18;;;25.10;74.20;;;;;;5092418;28;20024;-14
2022/09/07 08:23:31;;;;;;;11.70;8.02;;;25.30;72.30;;;;;;5092645;28;20070;-14
2022/09/07 08:25:59;;;;;;;11.60;8.30;;;25.40;72.30;;;;;;5091804;28;20429;-14
2022/09/07 08:28:27;;;;;;;11.23;8.23;;;25.60;72.00;;;;;;5096520;28;20020;-14
2022/09/07 08:30:54;;;;;;;10.13;8.02;;;25.90;72.50;;;;;;5095995;28;20524;-14
2022/09/07 08:33:21;;;;;;;10.25;8.05;;;26.00;70.30;;;;;;5096212;28;20110;-14
2022/09/07 08:35:55;;;;;;;11.02;7.32;;;26.00;70.40;;;;;;5096111;28;20032;-14
2022/09/07 08:38:21;;;;;;;10.93;8.68;;;26.00;70.30;;;;;;5096138;28;20364;-14
2022/09/07 08:40:48;;;;;;;8.80;7.35;;;25.90;70.20;;;;;;5094647;28;20065;-17
2022/09/07 08:43:24;;;;;;;10.13;7.60;;;25.80;70.50;;;;;;5096265;28;20064;-14
2022/09/07 08:45:55;;;;;;;11.57;8.65;;;25.90;69.70;;;;;;5096076;28;20081;-15
2022/09/07 08:48:30;;;;;;;11.32;6.95;;;26.00;68.70;;;;;;5096049;28;20020;-14
2022/09/07 08:51:05;;;;;;;9.88;7.60;;;26.20;69.30;;;;;;5095692;28;20181;-14
2022/09/07 08:53:35;;;;;;;12.05;8.25;;;26.30;68.60;;;;;;5095863;28;20016;-14
2022/09/07 08:56:05;;;;;;;10.65;8.52;;;26.50;68.50;;;;;;5096209;28;20035;-14
2022/09/07 08:58:40;;;;;;;12.55;8.73;;;26.70;67.00;;;;;;5095658;28;20487;-13
2022/09/07 09:01:16;;;;;;;10.57;7.78;;;26.90;67.20;;;;;;5095828;28;20031;-14
2022/09/07 09:03:43;;;;;;;11.45;8.48;;;26.90;66.40;;;;;;5094435;28;20429;-14
2022/09/07 09:06:27;;;;;;;10.32;7.70;;;27.00;65.70;;;;;;5095739;28;20024;-14
2022/09/07 09:08:56;;;;;;;9.63;7.82;;;26.90;65.40;;;;;;5095266;28;20090;-14
2022/09/07 09:11:39;;;;;;;9.20;7.60;;;26.90;66.00;;;;;;5095700;28;20031;-13
2022/09/07 09:14:14;;;;;;;12.13;7.68;;;26.90;65.90;;;;;;5095821;28;20031;-14
2022/09/07 09:16:56;;;;;;;8.65;6.97;;;27.00;65.60;;;;;;5095343;28;20036;-14
2022/09/07 09:19:57;;;;;;;9.00;7.35;;;27.20;65.60;;;;;;5095680;28;20021;-14
2022/09/07 09:22:27;;;;;;;9.77;8.25;;;27.40;65.50;;;;;;5053010;28;20067;-14
2022/09/07 09:25:15;;;;;;;9.38;6.28;;;27.50;65.40;;;;;;5052653;28;20029;-14
2022/09/07 09:27:41;;;;;;;8.05;6.53;;;27.60;65.50;;;;;;5053315;28;20025;-14
2022/09/07 09:30:22;;;;;;;8.90;7.35;;;27.80;65.10;;;;;;5052830;28;20470;-14
2022/09/07 09:32:51;;;;;;;10.13;7.85;;;27.90;64.60;;;;;;5052578;28;20040;-13
2022/09/07 09:35:27;;;;;;;11.25;7.72;;;28.00;64.10;;;;;;5053052;28;20028;-14
2022/09/07 09:37:52;;;;;;;11.65;8.50;;;28.10;62.70;;;;;;5052140;28;20037;-14
2022/09/07 09:40:29;;;;;;;9.55;7.05;;;28.20;63.40;;;;;;5052639;28;20082;-14
2022/09/07 09:43:04;;;;;;;9.15;7.22;;;28.10;63.50;;;;;;5052411;28;20127;-14
2022/09/07 09:45:33;;;;;;;9.48;7.45;;;28.10;64.00;;;;;;5035883;28;20029;-14
2022/09/07 09:48:01;;;;;;;8.95;6.85;;;28.40;62.90;;;;;;5052492;28;20113;-14
2022/09/07 09:50:36;;;;;;;8.65;6.32;;;28.80;62.10;;;;;;5052703;28;20025;-14
2022/09/07 09:53:05;;;;;;;8.73;5.10;;;29.30;60.80;;;;;;5052301;28;20041;-14
2022/09/07 09:55:36;;;;;;;7.22;5.10;;;29.70;60.10;;;;;;5052291;28;20025;-14
2022/09/07 09:58:25;;;;;;;8.68;6.53;;;30.10;58.70;;;;;;5053531;28;20493;-14
2022/09/07 10:01:00;;;;;;;7.35;4.88;;;30.50;56.90;;;;;;5094453;28;20069;-14
2022/09/07 10:03:31;;;;;;;7.30;4.90;;;30.80;56.80;;;;;;5094831;28;20080;-14
2022/09/07 10:05:59;;;;;;;6.60;5.30;;;31.00;56.10;;;;;;5094475;28;20033;-14
2022/09/07 10:08:31;;;;;;;7.75;4.90;;;31.30;55.60;;;;;;5094050;28;20114;-14
2022/09/07 10:11:04;;;;;;;7.38;5.50;;;31.50;55.40;;;;;;5094509;28;20028;-14
2022/09/07 10:13:34;;;;;;;5.68;4.22;;;31.50;53.50;;;;;;5094246;28;20493;-14
2022/09/07 10:16:05;;;;;;;6.15;4.30;;;31.70;54.20;;;;;;5094136;28;20543;-13
2022/09/07 10:18:40;;;;;;;6.13;5.05;;;31.90;52.20;;;;;;5094323;28;20472;-13
2022/09/07 10:21:25;;;;;;;5.78;4.70;;;31.90;51.50;;;;;;5094085;28;20026;-14
2022/09/07 10:23:58;;;;;;;6.93;4.68;;;31.90;52.30;;;;;;5094540;28;20016;-14
2022/09/07 10:26:35;;;;;;;7.43;3.88;;;31.50;52.00;;;;;;5094089;28;20085;-14
2022/09/07 10:29:22;;;;;;;4.97;3.85;;;31.50;51.60;;;;;;5094200;28;20020;-14
2022/09/07 10:32:16;;;;;;;6.82;4.32;;;31.90;52.10;;;;;;5086749;28;20372;-14
2022/09/07 10:34:51;;;;;;;6.22;4.90;;;32.00;49.20;;;;;;5094233;28;20050;-14
2022/09/07 10:37:29;;;;;;;6.75;4.75;;;32.20;49.80;;;;;;5094365;28;20047;-14
2022/09/07 10:40:23;;;;;;;7.25;5.13;;;32.20;49.50;;;;;;5094026;28;20024;-14
2022/09/07 10:43:00;;;;;;;5.45;4.03;;;32.40;49.90;;;;;;5093469;28;20025;-14
2022/09/07 10:45:56;;;;;;;6.22;4.43;;;32.40;51.60;;;;;;5093799;28;20085;-14
2022/09/07 10:48:42;;;;;;;5.75;3.58;;;32.80;49.10;;;;;;5086502;28;20073;-14
2022/09/07 10:51:17;;;;;;;9.93;3.80;;;33.20;47.00;;;;;;5092648;28;20387;-14
2022/09/07 10:54:08;;;;;;;5.93;3.83;;;33.30;48.20;;;;;;5093567;28;20028;-13
2022/09/07 10:56:53;;;;;;;4.38;3.28;;;33.50;48.60;;;;;;5092195;28;20067;-14
2022/09/07 10:59:42;;;;;;;6.85;4.05;;;33.50;48.00;;;;;;5094267;28;20384;-13
2022/09/07 11:02:23;;;;;;;5.72;3.75;;;33.40;47.50;;;;;;5093789;28;20031;-13
2022/09/07 11:05:13;;;;;;;5.15;3.53;;;33.30;46.30;;;;;;5093219;28;20468;-13
2022/09/07 11:08:14;;;;;;;5.30;3.63;;;33.20;48.00;;;;;;5093879;28;20028;-14
2022/09/07 11:11:06;;;;;;;4.72;3.42;;;33.10;47.70;;;;;;5093389;28;20522;-14
2022/09/07 11:13:38;;;;;;;7.15;3.33;;;32.90;47.70;;;;;;5093292;28;20471;-14
2022/09/07 11:16:17;;;;;;;8.23;3.90;;;33.00;48.60;;;;;;5093417;28;20586;-14
2022/09/07 11:18:57;;;;;;;3.75;3.40;;;32.60;49.00;;;;;;5093325;28;20028;-14
2022/09/07 11:21:43;;;;;;;7.05;3.58;;;32.70;47.60;;;;;;5093598;28;20024;-14
2022/09/07 11:24:35;;;;;;;4.45;3.05;;;33.10;47.70;;;;;;5093460;28;20407;-14
2022/09/07 11:27:31;;;;;;;4.57;3.50;;;33.00;48.40;;;;;;5093245;28;20059;-14
2022/09/07 11:30:14;;;;;;;5.82;3.30;;;33.10;48.10;;;;;;5089470;28;20049;-14
2022/09/07 11:32:50;;;;;;;4.43;3.30;;;33.50;47.90;;;;;;5093382;28;20434;-14
2022/09/07 11:35:30;;;;;;;3.58;3.13;;;33.90;47.10;;;;;;5093480;28;20032;-13
2022/09/07 11:38:02;;;;;;;6.45;3.65;;;34.20;47.20;;;;;;5093461;28;20123;-13
2022/09/07 11:40:28;;;;;;;;;;;34.50;46.20;;;;;;5093475;28;20028;-13
2022/09/07 11:43:31;;;;;;;7.03;3.70;;;34.80;46.00;;;;;;5093015;28;19908;-14
2022/09/07 11:46:13;;;;;;;4.32;3.30;;;34.40;44.80;;;;;;5087395;28;20032;-13
2022/09/07 11:48:54;;;;;;;4.13;2.97;;;34.20;45.70;;;;;;5091707;28;20111;-13
2022/09/07 11:51:43;;;;;;;5.03;3.38;;;34.00;45.80;;;;;;5092955;28;20040;-14
2022/09/07 11:54:47;;;;;;;5.35;3.60;;;33.80;46.80;;;;;;5093172;28;20040;-15
2022/09/07 11:57:13;;;;;;;4.47;3.20;;;34.30;45.70;;;;;;5050962;28;20040;-16
2022/09/07 11:59:48;;;;;;;6.25;3.22;;;34.60;45.20;;;;;;5050601;28;20029;-15
2022/09/07 12:02:35;;;;;;;4.20;3.00;;;35.00;44.90;;;;;;5053183;28;20040;-14
2022/09/07 12:05:12;;;;;;;5.32;3.00;;;35.40;44.10;;;;;;5054309;28;20040;-14
2022/09/07 12:08:17;;;;;;;4.18;2.85;;;35.60;44.30;;;;;;5054522;28;20116;-14
2022/09/07 12:11:14;;;;;;;5.25;3.20;;;36.00;43.50;;;;;;4995299;28;20065;-14
2022/09/07 12:14:04;;;;;;;6.60;3.30;;;36.10;42.20;;;;;;4994946;28;20478;-14
2022/09/07 12:17:02;;;;;;;6.30;3.33;;;36.10;41.90;;;;;;4995006;28;20474;-13
2022/09/07 12:19:28;;;;;;;5.22;3.38;;;36.10;42.10;;;;;;4995205;28;20038;-14
2022/09/07 12:22:01;;;;;;;4.47;2.92;;;36.20;42.50;;;;;;4994927;28;20038;-14
2022/09/07 12:24:47;;;;;;;6.88;3.28;;;36.60;42.60;;;;;;4994884;28;20027;-14
2022/09/07 12:27:19;;;;;;;5.85;3.00;;;37.10;41.10;;;;;;4994704;28;20401;-14
2022/09/07 12:29:47;;;;;;;6.37;3.10;;;37.40;40.50;;;;;;4994783;28;20537;-14
2022/09/07 12:32:45;;;;;;;4.07;3.00;;;37.40;40.80;;;;;;4994953;28;20061;-14
2022/09/07 12:35:32;;;;;;;5.53;3.30;;;37.60;40.30;;;;;;5033725;28;20420;-14
2022/09/07 12:38:29;;;;;;;6.28;3.35;;;37.70;39.30;;;;;;5034429;28;20041;-14
2022/09/07 12:41:24;;;;;;;5.30;3.38;;;37.00;39.80;;;;;;5033585;28;20026;-14
2022/09/07 12:44:04;;;;;;;4.60;3.17;;;36.30;41.70;;;;;;5033790;28;20061;-14
2022/09/07 12:46:32;;;;;;;4.60;3.40;;;36.00;43.10;;;;;;5039494;28;20040;-14
2022/09/07 12:49:07;;;;;;;6.68;3.42;;;35.60;43.50;;;;;;5096036;28;20115;-14
2022/09/07 12:51:38;;;;;;;7.55;3.70;;;35.30;43.80;;;;;;5095904;28;20070;-14
2022/09/07 12:54:07;;;;;;;4.60;3.38;;;34.90;44.40;;;;;;5095809;28;20039;-14
2022/09/07 12:56:50;;;;;;;5.45;3.35;;;34.60;45.00;;;;;;5095889;28;20024;-14
2022/09/07 12:59:31;;;;;;;5.25;3.08;;;34.70;45.10;;;;;;5095794;28;20444;-14
2022/09/07 13:02:24;;;;;;;4.47;3.10;;;34.90;45.10;;;;;;5095674;28;20082;-14
2022/09/07 13:04:55;;;;;;;3.75;2.90;;;35.40;44.60;;;;;;5095803;28;20060;-14
2022/09/07 13:07:59;;;;;;;6.80;3.50;;;35.70;43.80;;;;;;5095639;28;20436;-14
2022/09/07 13:10:35;;;;;;;5.60;3.70;;;35.80;43.30;;;;;;5079345;28;20051;-14
2022/09/07 13:13:26;;;;;;;4.85;3.42;;;36.00;42.30;;;;;;5094358;28;20027;-14
2022/09/07 13:16:04;;;;;;;5.28;3.60;;;35.90;42.30;;;;;;5089428;28;20074;-14
2022/09/07 13:18:33;;;;;;;6.93;3.42;;;35.60;43.00;;;;;;5095680;28;20017;-14